Lucas, KS (67648)

1:46 PM CDT on September 17, 2014 (GMT -0500)
Craven / Shiroky Farm | Change Station
CLOSE
Current Station
Personal Weather Station
Location: Luray, KS
Elevation: 1730 ft
Nearby Weather Stations

Elev 1730 ft 39.02 °N, 98.67 °W | Updated 7 seconds ago

Clear
Clear
81.2 °F
Feels Like 84 °F
N
0.0
Wind Variable Wind from East
Gusts 11.0 mph

Today
High -- | Low -- °F
--% Chance of Precip.
Yesterday
High -- | Low -- °F
Precip. -- in
7:17 AM 7:39 PM
Waning Crescent, 34% visible
Pressure 29.91 in
Visibility 10.0 miles
Clouds Clear
Heat Index 84 °F
Dew Point 67 °F
Humidity 62%
Rainfall 0.00 in
Snow Depth Not available.
UV 8 out of 12
Pollen 5.80 out of 12
Air Quality Not available.
Flu Activity Not available.
METAR KRSL 171753Z AUTO 11004KT 10SM CLR 27/18 A2991

More Conditions Fewer Conditions

Pressure 29.91 in
Visibility 10.0 miles
Clouds Clear
Heat Index 84 °F
Dew Point 67 °F
Humidity 62%
Rainfall 0.00 in
Snow Depth Not available.
UV 8 out of 12
Pollen 5.80 out of 12
Air Quality Not available.
Flu Activity Not available.
METAR KRSL 171753Z AUTO 11004KT 10SM CLR 27/18 A2991

More Conditions Fewer Conditions

10-Day Weather Forecast

Almanac

Astronomy

Sep. 17, 2014 Rise Set
Actual Time 7:17 AM CDT 7:39 PM CDT
Civil Twilight 6:50 AM CDT 8:05 PM CDT
Nautical Twilight 6:19 AM CDT 8:37 PM CDT
Astronomical Twilight 5:47 AM CDT 9:09 PM CDT
Moon 1:20 AM CDT 3:48 PM CDT
Length of Visible Light 13h 15m
Length of Day
12h 21m
Tomorrow will be 2m 31s shorter.
Waning Crescent, 34% of the Moon is Illuminated
Today
Waning Crescent
Sep 24
New
Oct 1
First Quarter
Oct 8
Full
Oct 15
Last Quarter

Today's Extremes

State Highs State Lows

Community

WunderPhotos

Upload Photos

1,754,127 photos uploaded!

WunderBlogs® & News

Nearby

Snow Depth

Station Depth Elevation
No new snow has been reported.

Earthquake Activity

City Distance Mag. Time & Date
No recent earthquake activity has been reported nearby.
Minimum magnitude displayed is 2.5.

Coastal Water Temperatures

Place Temperature
No Stations Reporting

Nearby Weather Stations